Terminal Aerodrome Forecast
Issued by NWS Chicago, IL

Home | Current Version | Previous Version | Text Only | Print | Product List | Glossary Off
Versions: 1 2 3 4 5 6 7 8 9 10 11 12 13 14 15 16 17 18 19 20 21 22 23 24 25

000
FTUS43 KLOT 240833 AAA
TAFRFD
TAF AMD
KRFD 240833Z 2409/2506 04007KT P6SM BKN015 BKN025
     FM241400 04009KT P6SM BKN025 BKN035
     FM241900 05008KT P6SM SCT035
     FM250000 08003KT P6SM SKC=

USA.gov is the U.S. government's official web portal to all federal, state and local government web resources and services.